Time;durP1;ratioP1;P1;durP2;ratioP2;P2;SDS_P1;SDS_P2;PMS_P1;PMS_P2;Temp;Humidity;BMP_temperature;BMP_pressure;BME280_temperature;BME280_humidity;BME280_pressure;Samples;Min_cycle;Max_cycle;Signal;HPM_P1;HPM_P2
2022/12/30 00:01:52;;;;;;;;;;;6.90;99.90;;;;;;5039149;28;19909;-60
2022/12/30 00:04:17;;;;;;;;;;;6.80;99.90;;;;;;5042465;28;19908;-61
2022/12/30 00:06:43;;;;;;;;;;;6.80;99.90;;;;;;5039311;28;19943;-61
2022/12/30 00:09:08;;;;;;;;;;;6.80;99.90;;;;;;5040726;28;19909;-61
2022/12/30 00:11:34;;;;;;;;;;;6.90;99.90;;;;;;5040254;28;19908;-61
2022/12/30 00:33:29;;;;;;;;;;;6.80;99.90;;;;;;5051168;28;19965;-61
2022/12/30 00:35:55;;;;;;;;;;;6.70;99.90;;;;;;5051090;28;19908;-61
2022/12/30 00:38:21;;;;;;;;;;;6.70;99.90;;;;;;5051019;28;19909;-61
2022/12/30 00:43:44;;;;;;;;;;;6.60;99.90;;;;;;5048689;28;19912;-60
2022/12/30 00:46:11;;;;;;;;;;;6.60;99.90;;;;;;5050851;28;19909;-61
2022/12/30 00:56:49;;;;;;;;;;;6.60;99.90;;;;;;5051365;28;20007;-61
2022/12/30 00:59:14;;;;;;;;;;;6.60;99.90;;;;;;5050168;28;20018;-60
2022/12/30 01:01:40;;;;;;;;;;;6.60;99.90;;;;;;5050998;28;20018;-61
2022/12/30 01:04:05;;;;;;;;;;;6.60;99.90;;;;;;5050323;28;20364;-61
2022/12/30 01:06:31;;;;;;;;;;;6.50;99.90;;;;;;5050811;28;19978;-61
2022/12/30 01:08:56;;;;;;;;;;;6.50;99.90;;;;;;5050496;28;19909;-60
2022/12/30 01:11:22;;;;;;;;;;;6.50;99.90;;;;;;5050891;28;19904;-60
2022/12/30 01:13:47;;;;;;;;;;;6.60;99.90;;;;;;5050396;28;19904;-60
2022/12/30 01:16:14;;;;;;;;;;;6.50;99.90;;;;;;5050543;28;19971;-60
2022/12/30 01:18:40;;;;;;;;;;;6.60;99.90;;;;;;5049985;28;19974;-61
2022/12/30 01:21:06;;;;;;;;;;;6.50;99.90;;;;;;5050200;28;20319;-60
2022/12/30 01:23:32;;;;;;;;;;;6.50;99.90;;;;;;5050428;28;19908;-60
2022/12/30 01:26:01;;;;;;;;;;;6.50;99.90;;;;;;5050167;28;20265;-61
2022/12/30 01:28:30;;;;;;;;;;;6.40;99.90;;;;;;5050604;28;19911;-60
2022/12/30 01:30:56;;;;;;;;;;;6.40;99.90;;;;;;5049397;28;19912;-61
2022/12/30 01:33:21;;;;;;;;;;;6.40;99.90;;;;;;5061100;28;19939;-61
2022/12/30 01:35:47;;;;;;;;;;;6.30;99.90;;;;;;5053844;28;19909;-60
2022/12/30 01:38:12;;;;;;;;;;;6.20;99.90;;;;;;5049831;28;19909;-60
2022/12/30 01:40:38;;;;;;;;;;;6.20;99.90;;;;;;5049975;28;19920;-61
2022/12/30 01:43:04;;;;;;;;;;;6.20;99.90;;;;;;5046024;28;20277;-60
2022/12/30 01:45:30;;;;;;;;;;;6.20;99.90;;;;;;5058930;28;20352;-60
2022/12/30 01:48:10;;;;;;;;;;;6.10;99.90;;;;;;5055805;28;19909;-60
2022/12/30 01:50:38;;;;;;;;;;;6.10;99.90;;;;;;5050077;28;19912;-60
2022/12/30 01:53:09;;;;;;;;;;;6.10;99.90;;;;;;5049675;28;19904;-60
2022/12/30 01:55:40;;;;;;;;;;;6.10;99.90;;;;;;5049997;28;20380;-61
2022/12/30 01:58:11;;;;;;;;;;;6.10;99.90;;;;;;5049962;28;19916;-60
2022/12/30 02:00:36;;;;;;;;;;;6.10;99.90;;;;;;5049340;28;19913;-60
2022/12/30 02:03:02;;;;;;;;;;;6.10;99.90;;;;;;5050067;28;20004;-60
2022/12/30 02:05:29;;;;;;;;;;;6.10;99.90;;;;;;5052586;28;20003;-61
2022/12/30 02:08:11;;;;;;;;;;;6.10;99.90;;;;;;5051658;28;19909;-60
2022/12/30 02:10:38;;;;;;;;;;;6.10;99.90;;;;;;5053716;28;19908;-61
2022/12/30 02:13:04;;;;;;;;;;;6.10;99.90;;;;;;5054087;28;19911;-60
2022/12/30 02:15:34;;;;;;;;;;;6.20;99.90;;;;;;5054165;28;20010;-60
2022/12/30 02:18:06;;;;;;;;;;;6.20;99.90;;;;;;5051691;28;20384;-60
2022/12/30 02:20:44;;;;;;;;;;;6.20;99.90;;;;;;5053436;28;19913;-60
2022/12/30 02:23:13;;;;;;;;;;;6.20;99.90;;;;;;5053476;28;19959;-61
2022/12/30 02:25:58;;;;;;;;;;;6.10;99.90;;;;;;5054113;28;19905;-61
2022/12/30 02:28:39;;;;;;;;;;;6.10;99.90;;;;;;5053916;28;20422;-60
2022/12/30 02:31:04;;;;;;;;;;;6.10;99.90;;;;;;5053520;28;19994;-60
2022/12/30 02:33:33;;;;;;;;;;;6.10;99.90;;;;;;5053591;28;19956;-60
2022/12/30 02:35:58;;;;;;;;;;;6.00;99.90;;;;;;5053444;28;19928;-60
2022/12/30 02:38:33;;;;;;;;;;;6.00;99.90;;;;;;5053741;28;19936;-61
2022/12/30 02:46:49;;;;;;;;;;;5.90;99.90;;;;;;5053270;28;19912;-60
2022/12/30 02:49:15;;;;;;;;;;;6.00;99.90;;;;;;5053031;28;19909;-61
2022/12/30 02:54:27;;;;;;;;;;;5.90;99.90;;;;;;5052568;28;19927;-60
2022/12/30 02:56:53;;;;;;;;;;;5.90;99.90;;;;;;5050226;28;20596;-60
2022/12/30 03:04:59;;;;;;;;;;;5.80;99.90;;;;;;5053173;28;19996;-60
2022/12/30 03:07:43;;;;;;;;;;;5.80;99.90;;;;;;5053009;28;19975;-60
2022/12/30 03:13:07;;;;;;;;;;;5.90;99.90;;;;;;5052843;28;20337;-60
2022/12/30 03:15:37;;;;;;;;;;;5.80;99.90;;;;;;5052317;28;20283;-60
2022/12/30 03:18:03;;;;;;;;;;;5.80;99.90;;;;;;5052863;28;19913;-60
2022/12/30 03:20:30;;;;;;;;;;;5.80;99.90;;;;;;5052641;28;20473;-60
2022/12/30 03:28:26;;;;;;;;;;;5.70;99.90;;;;;;5053274;28;19958;-60
2022/12/30 03:31:11;;;;;;;;;;;5.70;99.90;;;;;;5052407;28;19908;-60
2022/12/30 03:33:38;;;;;;;;;;;5.70;99.90;;;;;;5049465;28;19916;-60
2022/12/30 03:36:14;;;;;;;;;;;5.60;99.90;;;;;;5052519;28;19912;-60
2022/12/30 03:38:42;;;;;;;;;;;5.60;99.90;;;;;;5052631;28;19908;-60
2022/12/30 03:41:09;;;;;;;;;;;5.60;99.90;;;;;;5052032;28;19905;-60
2022/12/30 03:43:34;;;;;;;;;;;5.50;99.90;;;;;;5052169;28;19909;-60
2022/12/30 03:46:00;;;;;;;;;;;5.50;99.90;;;;;;5052202;28;19912;-60
2022/12/30 03:48:25;;;;;;;;;;;5.40;99.90;;;;;;5052553;28;19908;-60
2022/12/30 03:50:51;;;;;;;;;;;5.30;99.90;;;;;;5051733;28;19904;-60
2022/12/30 03:53:16;;;;;;;;;;;5.30;99.90;;;;;;5052143;28;19908;-60
2022/12/30 03:55:42;;;;;;;;;;;5.30;99.90;;;;;;5051859;28;19962;-60
2022/12/30 03:58:07;;;;;;;;;;;5.20;99.90;;;;;;5052076;28;19913;-60
2022/12/30 04:00:33;;;;;;;;;;;5.20;99.90;;;;;;5051576;28;19913;-60
2022/12/30 04:02:58;;;;;;;;;;;5.10;99.90;;;;;;5051729;28;19905;-60
2022/12/30 04:05:23;;;;;;;;;;;5.10;99.90;;;;;;5051939;28;19905;-60
2022/12/30 04:07:49;;;;;;;;;;;5.00;99.90;;;;;;5051608;28;19987;-60
2022/12/30 04:10:14;;;;;;;;;;;5.00;99.90;;;;;;5051919;28;19912;-60
2022/12/30 04:12:40;;;;;;;;;;;5.00;99.90;;;;;;5051490;28;19947;-60
2022/12/30 04:15:06;;;;;;;;;;;5.00;99.90;;;;;;5051724;28;20283;-60
2022/12/30 04:17:31;;;;;;;;;;;4.90;99.90;;;;;;5051321;28;19963;-60
2022/12/30 04:19:57;;;;;;;;;;;4.90;99.90;;;;;;5051936;28;20356;-60
2022/12/30 04:22:22;;;;;;;;;;;4.90;99.90;;;;;;5051667;28;20367;-60
2022/12/30 04:24:47;;;;;;;;;;;4.80;99.90;;;;;;5051718;28;20372;-60
2022/12/30 04:27:13;;;;;;;;;;;4.80;99.90;;;;;;5050091;28;20075;-60
2022/12/30 04:29:38;;;;;;;;;;;4.80;99.90;;;;;;5051591;28;19905;-60
2022/12/30 04:32:04;;;;;;;;;;;4.80;99.90;;;;;;5051515;28;19904;-60
2022/12/30 04:34:29;;;;;;;;;;;4.80;99.90;;;;;;5051546;28;20004;-60
2022/12/30 04:36:55;;;;;;;;;;;4.80;99.90;;;;;;5050968;28;19909;-60
2022/12/30 04:39:20;;;;;;;;;;;4.80;99.90;;;;;;5051270;28;20000;-60
2022/12/30 04:41:47;;;;;;;;;;;4.80;99.90;;;;;;5051130;28;19962;-60
2022/12/30 04:44:13;;;;;;;;;;;4.80;99.90;;;;;;5050992;28;19911;-60
2022/12/30 04:46:38;;;;;;;;;;;4.80;99.90;;;;;;5066434;28;19905;-60
2022/12/30 04:49:04;;;;;;;;;;;4.80;99.90;;;;;;5051250;28;19912;-60
2022/12/30 04:51:29;;;;;;;;;;;4.80;99.90;;;;;;5051308;28;20253;-60
2022/12/30 04:53:55;;;;;;;;;;;4.80;99.90;;;;;;5050689;28;19915;-60
2022/12/30 04:56:20;;;;;;;;;;;4.80;99.90;;;;;;5066168;28;19912;-60
2022/12/30 04:58:46;;;;;;;;;;;4.80;99.90;;;;;;5050955;28;19924;-60
2022/12/30 05:01:11;;;;;;;;;;;4.70;99.90;;;;;;5050776;28;19932;-60
2022/12/30 05:03:37;;;;;;;;;;;4.70;99.90;;;;;;5050677;28;20063;-60
2022/12/30 05:06:02;;;;;;;;;;;4.70;99.90;;;;;;5050966;28;20380;-60
2022/12/30 05:08:28;;;;;;;;;;;4.70;99.90;;;;;;5050956;28;20347;-60
2022/12/30 05:10:53;;;;;;;;;;;4.70;99.90;;;;;;5050440;28;19955;-60
2022/12/30 05:13:18;;;;;;;;;;;4.70;99.90;;;;;;5050429;28;19959;-60
2022/12/30 05:15:44;;;;;;;;;;;4.70;99.90;;;;;;5066235;28;19905;-60
2022/12/30 05:18:10;;;;;;;;;;;4.70;99.90;;;;;;5050289;28;19973;-60
2022/12/30 05:20:36;;;;;;;;;;;4.70;99.90;;;;;;5050388;28;19999;-60
2022/12/30 05:23:01;;;;;;;;;;;4.70;99.90;;;;;;5050387;28;20008;-60
2022/12/30 05:28:11;;;;;;;;;;;4.70;99.90;;;;;;5050279;28;19911;-60
2022/12/30 05:30:36;;;;;;;;;;;4.70;99.90;;;;;;5050015;28;20283;-60
2022/12/30 05:33:02;;;;;;;;;;;4.60;99.90;;;;;;5049226;28;19958;-60
2022/12/30 05:35:27;;;;;;;;;;;4.70;99.90;;;;;;5049555;28;19909;-60
2022/12/30 05:37:53;;;;;;;;;;;4.70;99.90;;;;;;5049812;28;20213;-60
2022/12/30 05:40:18;;;;;;;;;;;4.70;99.90;;;;;;5049990;28;19905;-60
2022/12/30 05:42:44;;;;;;;;;;;4.70;99.90;;;;;;5050298;28;20280;-60
2022/12/30 05:45:09;;;;;;;;;;;4.70;99.90;;;;;;5048044;28;20368;-60
2022/12/30 05:47:35;;;;;;;;;;;4.70;99.90;;;;;;5044940;28;19916;-60
2022/12/30 05:50:00;;;;;;;;;;;4.70;99.90;;;;;;5038640;28;19905;-60
2022/12/30 05:52:27;;;;;;;;;;;4.80;99.90;;;;;;5036836;28;19912;-60
2022/12/30 05:54:53;;;;;;;;;;;4.70;99.90;;;;;;5053351;28;20276;-60
2022/12/30 05:57:18;;;;;;;;;;;4.80;99.90;;;;;;5036136;28;19909;-60
2022/12/30 05:59:44;;;;;;;;;;;4.80;99.90;;;;;;5035015;28;19920;-60
2022/12/30 06:02:09;;;;;;;;;;;4.80;99.90;;;;;;5038967;28;20411;-60
2022/12/30 06:04:35;;;;;;;;;;;4.80;99.90;;;;;;5038943;28;20295;-60
2022/12/30 06:07:00;;;;;;;;;;;4.80;99.90;;;;;;5035038;28;19916;-60
2022/12/30 06:09:25;;;;;;;;;;;4.80;99.90;;;;;;5039323;28;19944;-61
2022/12/30 06:11:51;;;;;;;;;;;4.80;99.90;;;;;;5037210;28;19948;-60
2022/12/30 06:14:17;;;;;;;;;;;4.80;99.90;;;;;;5037570;28;19916;-60
2022/12/30 06:16:43;;;;;;;;;;;4.90;99.90;;;;;;5037840;28;19913;-60
2022/12/30 06:19:08;;;;;;;;;;;4.90;99.90;;;;;;5035660;28;19924;-60
2022/12/30 06:21:34;;;;;;;;;;;4.90;99.90;;;;;;5038593;28;19951;-60
2022/12/30 06:23:59;;;;;;;;;;;4.90;99.90;;;;;;5037896;28;19909;-60
2022/12/30 06:26:25;;;;;;;;;;;4.90;99.90;;;;;;5036218;28;20372;-60
2022/12/30 06:28:51;;;;;;;;;;;4.90;99.90;;;;;;5033951;28;19941;-60
2022/12/30 06:31:16;;;;;;;;;;;4.90;99.90;;;;;;5028694;28;19924;-60
2022/12/30 06:33:41;;;;;;;;;;;4.90;99.90;;;;;;5031619;28;19916;-60
2022/12/30 06:36:07;;;;;;;;;;;4.90;99.90;;;;;;5030346;28;20353;-60
2022/12/30 06:38:33;;;;;;;;;;;4.90;99.90;;;;;;5031544;28;19920;-60
2022/12/30 06:40:58;;;;;;;;;;;4.90;99.90;;;;;;5028842;28;19971;-60
2022/12/30 06:43:24;;;;;;;;;;;4.90;99.90;;;;;;5015267;28;20441;-60
2022/12/30 06:45:49;;;;;;;;;;;4.90;99.90;;;;;;5031537;28;19909;-60
2022/12/30 06:48:15;;;;;;;;;;;4.90;99.90;;;;;;5035040;28;20402;-60
2022/12/30 06:50:40;;;;;;;;;;;4.90;99.90;;;;;;5032271;28;20019;-60
2022/12/30 06:53:06;;;;;;;;;;;5.00;99.90;;;;;;5033844;28;19963;-60
2022/12/30 06:55:31;;;;;;;;;;;4.90;99.90;;;;;;5036417;28;19940;-60
2022/12/30 06:57:57;;;;;;;;;;;5.00;99.90;;;;;;5035451;28;19949;-60
2022/12/30 07:00:22;;;;;;;;;;;5.00;99.90;;;;;;5037992;28;19975;-60
2022/12/30 07:02:48;;;;;;;;;;;5.00;99.90;;;;;;5034081;28;19916;-60
2022/12/30 07:05:14;;;;;;;;;;;5.00;99.90;;;;;;5038920;28;19935;-60
2022/12/30 07:07:39;;;;;;;;;;;5.10;99.90;;;;;;5035689;28;19913;-60
2022/12/30 07:10:05;;;;;;;;;;;5.10;99.90;;;;;;5036312;28;20352;-60
2022/12/30 07:12:30;;;;;;;;;;;5.10;99.90;;;;;;5037952;28;19909;-60
2022/12/30 07:14:56;;;;;;;;;;;5.00;99.90;;;;;;5035259;28;20391;-60
2022/12/30 07:17:21;;;;;;;;;;;5.00;99.90;;;;;;5035050;28;19921;-60
2022/12/30 07:19:46;;;;;;;;;;;5.10;99.90;;;;;;5036776;28;19949;-60
2022/12/30 07:22:12;;;;;;;;;;;5.00;99.90;;;;;;5033023;28;19905;-60
2022/12/30 07:24:38;;;;;;;;;;;5.00;99.90;;;;;;5032370;28;20303;-60
2022/12/30 07:27:03;;;;;;;;;;;5.00;99.90;;;;;;5034743;28;20404;-60
2022/12/30 07:29:29;;;;;;;;;;;5.00;99.90;;;;;;5037473;28;19978;-60
2022/12/30 07:31:55;;;;;;;;;;;4.90;99.90;;;;;;5030842;28;19916;-60
2022/12/30 07:34:20;;;;;;;;;;;5.00;99.90;;;;;;5031891;28;19909;-60
2022/12/30 07:36:46;;;;;;;;;;;5.00;99.90;;;;;;5036813;28;19919;-60
2022/12/30 07:39:11;;;;;;;;;;;5.00;99.90;;;;;;5037045;28;19935;-61
2022/12/30 07:41:37;;;;;;;;;;;5.00;99.90;;;;;;5038388;28;19909;-60
2022/12/30 07:44:02;;;;;;;;;;;4.90;99.90;;;;;;5033895;28;20345;-60
2022/12/30 07:46:28;;;;;;;;;;;4.90;99.90;;;;;;5041633;28;20353;-60
2022/12/30 07:48:53;;;;;;;;;;;4.90;99.90;;;;;;5052918;28;20004;-60
2022/12/30 07:51:18;;;;;;;;;;;4.90;99.90;;;;;;5067245;28;19912;-60
2022/12/30 07:53:44;;;;;;;;;;;4.90;99.90;;;;;;5053348;28;20062;-60
2022/12/30 07:56:11;;;;;;;;;;;4.90;99.90;;;;;;5053537;28;20367;-60
2022/12/30 07:58:37;;;;;;;;;;;4.90;99.90;;;;;;5068645;28;19912;-60
2022/12/30 08:01:10;;;;;;;;;;;5.00;99.90;;;;;;5053041;28;19919;-60
2022/12/30 08:03:36;;;;;;;;;;;5.10;99.90;;;;;;5053068;28;20281;-60
2022/12/30 08:06:06;;;;;;;;;;;5.10;99.90;;;;;;5053931;28;19994;-60
2022/12/30 08:08:32;;;;;;;;;;;5.10;99.90;;;;;;5053236;28;19905;-60
2022/12/30 08:10:58;;;;;;;;;;;5.10;99.90;;;;;;5053427;28;20038;-60
2022/12/30 08:13:23;;;;;;;;;;;5.20;99.90;;;;;;5052932;28;20287;-60
2022/12/30 08:15:49;;;;;;;;;;;5.20;99.90;;;;;;5052694;28;20003;-61
2022/12/30 08:18:14;;;;;;;;;;;5.20;99.90;;;;;;5045077;28;19921;-60
2022/12/30 08:20:40;;;;;;;;;;;5.20;99.90;;;;;;5067363;28;19915;-60
2022/12/30 08:23:05;;;;;;;;;;;5.20;99.90;;;;;;5051766;28;20103;-60
2022/12/30 08:25:31;;;;;;;;;;;5.30;99.90;;;;;;5067675;28;19955;-60
2022/12/30 08:27:56;;;;;;;;;;;5.40;99.90;;;;;;5056182;28;20279;-60
2022/12/30 08:30:22;;;;;;;;;;;5.40;99.90;;;;;;5066985;28;20271;-60
2022/12/30 08:32:47;;;;;;;;;;;5.40;99.90;;;;;;5052113;28;20344;-60
2022/12/30 08:35:12;;;;;;;;;;;5.50;99.90;;;;;;5051358;28;19909;-60
2022/12/30 08:37:38;;;;;;;;;;;5.50;99.90;;;;;;5052056;28;19958;-60
2022/12/30 08:40:04;;;;;;;;;;;5.60;99.90;;;;;;5070408;28;19927;-60
2022/12/30 08:42:29;;;;;;;;;;;5.60;99.90;;;;;;5050766;28;19909;-60
2022/12/30 08:44:55;;;;;;;;;;;5.60;99.90;;;;;;5029779;28;20320;-60
2022/12/30 08:47:20;;;;;;;;;;;5.70;99.90;;;;;;5049988;28;19904;-60
2022/12/30 08:49:46;;;;;;;;;;;5.70;99.90;;;;;;5048783;28;19917;-60
2022/12/30 08:52:11;;;;;;;;;;;5.80;99.90;;;;;;5048168;28;20417;-60
2022/12/30 08:54:36;;;;;;;;;;;5.90;99.90;;;;;;5065406;28;19908;-61
2022/12/30 08:57:02;;;;;;;;;;;5.90;99.90;;;;;;5049311;28;19909;-60
2022/12/30 08:59:28;;;;;;;;;;;5.90;99.90;;;;;;5051011;28;19924;-60
2022/12/30 09:01:54;;;;;;;;;;;6.00;99.90;;;;;;5050923;28;19912;-60
2022/12/30 09:04:19;;;;;;;;;;;6.00;99.90;;;;;;5049935;28;19915;-60
2022/12/30 09:06:45;;;;;;;;;;;6.10;99.90;;;;;;5050185;28;19904;-60
2022/12/30 09:09:14;;;;;;;;;;;6.20;99.90;;;;;;5050064;28;19927;-60
2022/12/30 09:11:40;;;;;;;;;;;6.20;99.90;;;;;;5049508;28;19905;-60
2022/12/30 09:14:07;;;;;;;;;;;6.30;99.90;;;;;;5049703;28;19908;-60
2022/12/30 09:16:32;;;;;;;;;;;6.30;99.90;;;;;;5049890;28;19999;-60
2022/12/30 09:18:58;;;;;;;;;;;6.30;99.90;;;;;;5054490;28;20039;-60
2022/12/30 09:21:24;;;;;;;;;;;6.40;99.90;;;;;;5049149;28;20000;-60
2022/12/30 09:23:49;;;;;;;;;;;6.40;99.90;;;;;;5049838;28;19944;-60
2022/12/30 09:26:19;;;;;;;;;;;6.50;99.90;;;;;;5066397;28;19915;-61
2022/12/30 09:28:45;;;;;;;;;;;6.50;99.90;;;;;;5050657;28;19905;-60
2022/12/30 09:31:10;;;;;;;;;;;6.50;99.90;;;;;;5051255;28;19904;-60
2022/12/30 09:33:36;;;;;;;;;;;6.50;99.90;;;;;;5050620;28;20357;-60
2022/12/30 09:36:02;;;;;;;;;;;6.60;99.90;;;;;;5051225;28;19924;-60
2022/12/30 09:38:27;;;;;;;;;;;6.60;99.90;;;;;;5050821;28;19919;-60
2022/12/30 09:40:57;;;;;;;;;;;6.80;99.90;;;;;;5050516;28;19904;-60
2022/12/30 09:43:29;;;;;;;;;;;6.80;99.90;;;;;;5044422;28;19909;-60
2022/12/30 09:46:05;;;;;;;;;;;6.90;99.90;;;;;;5050745;28;19912;-60
2022/12/30 09:48:37;;;;;;;;;;;6.90;99.90;;;;;;5049343;28;19916;-60
2022/12/30 09:51:05;;;;;;;;;;;7.00;99.90;;;;;;5049991;28;19958;-60
2022/12/30 09:53:36;;;;;;;;;;;7.10;99.90;;;;;;5037285;28;19904;-60
2022/12/30 09:56:04;;;;;;;;;;;7.10;99.90;;;;;;5046865;28;20054;-60
2022/12/30 09:58:31;;;;;;;;;;;7.20;99.90;;;;;;5050167;28;19917;-60
2022/12/30 10:01:03;;;;;;;;;;;7.20;99.90;;;;;;5050079;28;19920;-60
2022/12/30 10:03:29;;;;;;;;;;;7.20;99.90;;;;;;5045616;28;19943;-60
2022/12/30 10:06:12;;;;;;;;;;;7.30;99.90;;;;;;5048255;28;19905;-60
2022/12/30 10:08:53;;;;;;;;;;;7.30;99.90;;;;;;5041567;28;19924;-60
2022/12/30 10:11:30;;;;;;;;;;;7.30;99.90;;;;;;5050489;28;19905;-60
2022/12/30 10:14:18;;;;;;;;;;;7.30;99.90;;;;;;5049557;28;20191;-60
2022/12/30 10:17:04;;;;;;;;;;;7.30;99.90;;;;;;5047344;28;19915;-60
2022/12/30 10:19:38;;;;;;;;;;;7.30;99.90;;;;;;5048736;28;19963;-60
2022/12/30 10:22:09;;;;;;;;;;;7.30;99.90;;;;;;5048001;28;20394;-60
2022/12/30 10:24:53;;;;;;;;;;;7.30;99.90;;;;;;5048814;28;20267;-61
2022/12/30 10:27:20;;;;;;;;;;;7.40;99.90;;;;;;5050091;28;20383;-60
2022/12/30 10:29:46;;;;;;;;;;;7.40;99.90;;;;;;5068189;28;19974;-60
2022/12/30 10:32:14;;;;;;;;;;;7.40;99.90;;;;;;5034806;28;20544;-60
2022/12/30 10:34:40;;;;;;;;;;;7.40;99.90;;;;;;5050512;28;19996;-60
2022/12/30 10:37:15;;;;;;;;;;;7.50;99.90;;;;;;5052219;28;20203;-60
2022/12/30 10:39:45;;;;;;;;;;;7.50;99.90;;;;;;5052623;28;20356;-60
2022/12/30 10:42:16;;;;;;;;;;;7.50;99.90;;;;;;5052675;28;19909;-60
2022/12/30 10:44:44;;;;;;;;;;;7.60;99.90;;;;;;5066330;28;20767;-61
2022/12/30 10:47:20;;;;;;;;;;;7.60;99.90;;;;;;5053007;28;19909;-60
2022/12/30 10:49:58;;;;;;;;;;;7.70;99.90;;;;;;5050990;28;19908;-60
2022/12/30 10:52:24;;;;;;;;;;;7.80;99.90;;;;;;5050353;28;19912;-60
2022/12/30 10:54:50;;;;;;;;;;;7.80;99.90;;;;;;5052555;28;20418;-60
2022/12/30 10:57:24;;;;;;;;;;;7.90;99.90;;;;;;5052117;28;19917;-60
2022/12/30 10:59:50;;;;;;;;;;;7.90;99.90;;;;;;5052264;28;19917;-60
2022/12/30 11:02:15;;;;;;;;;;;8.00;99.90;;;;;;5052907;28;19962;-60
2022/12/30 11:04:41;;;;;;;;;;;8.00;99.90;;;;;;5052351;28;20400;-60
2022/12/30 11:07:11;;;;;;;;;;;8.10;99.90;;;;;;5034284;28;19913;-60
2022/12/30 11:09:37;;;;;;;;;;;8.10;99.90;;;;;;5052188;28;20323;-60
2022/12/30 11:14:56;;;;;;;;;;;8.10;99.90;;;;;;5051114;28;19911;-61
2022/12/30 11:17:23;;;;;;;;;;;8.20;99.90;;;;;;5051048;28;20026;-61
2022/12/30 11:19:49;;;;;;;;;;;8.20;99.90;;;;;;5052436;28;19995;-60
2022/12/30 11:22:15;;;;;;;;;;;8.30;99.90;;;;;;5052423;28;20365;-60
2022/12/30 11:24:44;;;;;;;;;;;8.30;99.90;;;;;;5052505;28;19911;-61
2022/12/30 11:27:10;;;;;;;;;;;8.30;99.90;;;;;;5067714;28;19950;-60
2022/12/30 11:29:36;;;;;;;;;;;8.40;99.90;;;;;;5050410;28;19917;-60
2022/12/30 11:32:08;;;;;;;;;;;8.40;99.90;;;;;;5048021;28;20000;-61
2022/12/30 11:34:36;;;;;;;;;;;8.40;99.90;;;;;;5050605;28;20764;-60
2022/12/30 11:37:20;;;;;;;;;;;8.40;99.90;;;;;;5031211;28;19960;-61
2022/12/30 11:39:45;;;;;;;;;;;8.40;99.90;;;;;;5047683;28;19914;-60
2022/12/30 11:42:27;;;;;;;;;;;8.40;99.90;;;;;;5069059;28;20000;-61
2022/12/30 11:45:11;;;;;;;;;;;8.50;99.90;;;;;;5053474;28;19912;-61
2022/12/30 11:47:36;;;;;;;;;;;8.50;99.90;;;;;;5053848;28;19908;-61
2022/12/30 11:50:01;;;;;;;;;;;8.50;99.90;;;;;;5051544;28;19919;-61
2022/12/30 11:52:28;;;;;;;;;;;8.50;99.90;;;;;;5052670;28;19992;-61
2022/12/30 11:54:55;;;;;;;;;;;8.50;99.90;;;;;;5053282;28;19905;-60
2022/12/30 11:57:30;;;;;;;;;;;8.50;99.90;;;;;;5040329;28;20008;-61
2022/12/30 12:00:06;;;;;;;;;;;8.50;99.90;;;;;;5051371;28;19991;-61
2022/12/30 12:02:33;;;;;;;;;;;8.50;99.90;;;;;;5030839;28;19911;-61
2022/12/30 12:04:59;;;;;;;;;;;8.50;99.90;;;;;;5050405;28;19908;-61
2022/12/30 12:07:29;;;;;;;;;;;8.50;99.90;;;;;;5049595;28;20090;-61
2022/12/30 12:10:00;;;;;;;;;;;8.60;99.90;;;;;;5049810;28;19905;-61
2022/12/30 12:12:28;;;;;;;;;;;8.60;99.90;;;;;;5051795;28;20217;-61
2022/12/30 12:15:03;;;;;;;;;;;8.60;99.90;;;;;;5051374;28;19909;-60
2022/12/30 12:17:36;;;;;;;;;;;8.60;99.90;;;;;;5049833;28;19939;-61
2022/12/30 12:20:03;;;;;;;;;;;8.70;99.90;;;;;;5051700;28;19931;-60
2022/12/30 12:23:04;;;;;;;;;;;8.70;99.90;;;;;;5051221;28;19915;-61
2022/12/30 12:25:33;;;;;;;;;;;8.70;99.90;;;;;;5028583;28;19939;-61
2022/12/30 12:27:58;;;;;;;;;;;8.70;99.90;;;;;;5047329;28;19905;-61
2022/12/30 12:30:26;;;;;;;;;;;8.70;99.90;;;;;;5051175;28;20405;-61
2022/12/30 12:33:24;;;;;;;;;;;8.80;99.90;;;;;;5056740;28;20280;-61
2022/12/30 12:35:49;;;;;;;;;;;8.80;99.90;;;;;;5028324;28;19962;-61
2022/12/30 12:38:27;;;;;;;;;;;8.90;99.90;;;;;;5050771;28;19908;-61
2022/12/30 12:41:04;;;;;;;;;;;8.90;99.90;;;;;;5048179;28;20284;-60
2022/12/30 12:43:42;;;;;;;;;;;8.90;99.90;;;;;;5050733;28;19904;-61
2022/12/30 12:46:25;;;;;;;;;;;8.90;99.90;;;;;;5051465;28;20334;-61
2022/12/30 12:48:51;;;;;;;;;;;9.00;99.90;;;;;;5049137;28;20367;-60
2022/12/30 12:51:32;;;;;;;;;;;9.00;99.90;;;;;;5052282;28;19913;-61
2022/12/30 12:53:57;;;;;;;;;;;9.00;99.90;;;;;;5052115;28;20388;-61
2022/12/30 12:56:29;;;;;;;;;;;8.90;99.90;;;;;;5052424;28;19904;-60
2022/12/30 12:59:03;;;;;;;;;;;8.90;99.90;;;;;;5052074;28;19962;-61
2022/12/30 13:01:40;;;;;;;;;;;8.90;99.90;;;;;;5051856;28;19921;-60
2022/12/30 13:04:05;;;;;;;;;;;8.90;99.90;;;;;;5052456;28;19963;-60
2022/12/30 13:06:37;;;;;;;;;;;8.90;99.90;;;;;;5037387;28;19913;-61
2022/12/30 13:09:12;;;;;;;;;;;8.80;99.90;;;;;;5052412;28;19927;-61
2022/12/30 13:11:38;;;;;;;;;;;8.80;99.90;;;;;;5051970;28;19908;-60
2022/12/30 13:14:22;;;;;;;;;;;8.70;99.90;;;;;;5052152;28;19950;-60
2022/12/30 13:16:50;;;;;;;;;;;8.70;99.90;;;;;;5036321;28;19955;-60
2022/12/30 13:19:17;;;;;;;;;;;8.70;99.90;;;;;;5047636;28;19912;-60
2022/12/30 13:21:44;;;;;;;;;;;8.70;99.90;;;;;;5052009;28;19966;-60
2022/12/30 13:24:14;;;;;;;;;;;8.70;99.90;;;;;;5051505;28;19996;-61
2022/12/30 13:26:40;;;;;;;;;;;8.60;99.90;;;;;;5051548;28;19904;-60
2022/12/30 13:29:06;;;;;;;;;;;8.60;99.90;;;;;;5049735;28;19919;-61
2022/12/30 13:31:38;;;;;;;;;;;8.60;99.90;;;;;;5050271;28;19931;-61
2022/12/30 13:34:12;;;;;;;;;;;8.50;99.90;;;;;;5050236;28;19996;-60
2022/12/30 13:36:47;;;;;;;;;;;8.50;99.90;;;;;;5050456;28;19904;-60
2022/12/30 13:39:31;;;;;;;;;;;8.50;99.90;;;;;;5046667;28;19913;-61
2022/12/30 13:42:08;;;;;;;;;;;8.60;99.90;;;;;;5041714;28;19959;-60
2022/12/30 13:44:35;;;;;;;;;;;8.50;99.90;;;;;;5027893;28;19915;-60
2022/12/30 13:47:01;;;;;;;;;;;8.50;99.90;;;;;;5038700;28;19912;-60
2022/12/30 13:49:32;;;;;;;;;;;8.50;99.90;;;;;;5024578;28;19959;-61
2022/12/30 13:51:59;;;;;;;;;;;8.50;99.90;;;;;;5047491;28;19909;-61
2022/12/30 13:54:26;;;;;;;;;;;8.50;99.90;;;;;;5047739;28;19943;-60
2022/12/30 13:56:52;;;;;;;;;;;8.50;99.90;;;;;;5037232;28;20001;-61
2022/12/30 13:59:29;;;;;;;;;;;8.50;99.90;;;;;;5039130;28;19917;-61
2022/12/30 14:02:24;;;;;;;;;;;8.50;99.90;;;;;;5032186;28;20000;-60
2022/12/30 14:04:54;;;;;;;;;;;8.50;99.90;;;;;;4993926;28;19909;-61
2022/12/30 14:07:38;;;;;;;;;;;8.50;99.90;;;;;;5018081;28;19963;-60
2022/12/30 14:10:18;;;;;;;;;;;8.40;99.90;;;;;;5032230;28;19908;-61
2022/12/30 14:12:45;;;;;;;;;;;8.40;99.90;;;;;;5033201;28;20008;-61
2022/12/30 14:15:39;;;;;;;;;;;8.40;99.90;;;;;;5027431;28;19931;-61
2022/12/30 14:18:20;;;;;;;;;;;8.40;99.90;;;;;;5010218;28;19971;-61
2022/12/30 14:20:58;;;;;;;;;;;8.30;99.90;;;;;;5033138;28;20375;-61
2022/12/30 14:23:35;;;;;;;;;;;8.30;99.90;;;;;;5033714;28;19909;-60
2022/12/30 14:26:18;;;;;;;;;;;8.30;99.90;;;;;;5025961;28;19905;-60
2022/12/30 14:28:51;;;;;;;;;;;8.30;99.90;;;;;;5029531;28;19905;-61
2022/12/30 14:31:27;;;;;;;;;;;8.40;99.90;;;;;;5031245;28;19923;-60
2022/12/30 14:33:54;;;;;;;;;;;8.40;99.90;;;;;;5021832;28;20023;-60
2022/12/30 14:36:24;;;;;;;;;;;8.40;99.90;;;;;;5034087;28;20290;-60
2022/12/30 14:38:50;;;;;;;;;;;8.40;99.90;;;;;;5031195;28;19920;-60
2022/12/30 14:41:23;;;;;;;;;;;8.40;99.90;;;;;;5038466;28;19935;-61
2022/12/30 14:44:05;;;;;;;;;;;8.50;99.90;;;;;;5038337;28;19916;-60
2022/12/30 14:46:36;;;;;;;;;;;8.50;99.90;;;;;;5021333;28;19909;-61
2022/12/30 14:49:13;;;;;;;;;;;8.50;99.90;;;;;;5034141;28;20343;-60
2022/12/30 14:51:43;;;;;;;;;;;8.50;99.90;;;;;;5034131;28;19905;-60
2022/12/30 14:54:12;;;;;;;;;;;8.50;99.90;;;;;;5024564;28;20250;-60
2022/12/30 14:56:38;;;;;;;;;;;8.50;99.90;;;;;;5033554;28;19909;-60
2022/12/30 14:59:06;;;;;;;;;;;8.50;99.90;;;;;;5033149;28;19913;-60
2022/12/30 15:01:31;;;;;;;;;;;8.50;99.90;;;;;;5051264;28;19921;-60
2022/12/30 15:04:09;;;;;;;;;;;8.50;99.90;;;;;;5054371;28;19919;-60
2022/12/30 15:06:35;;;;;;;;;;;8.50;99.90;;;;;;5050048;28;19909;-60
2022/12/30 15:09:05;;;;;;;;;;;8.50;99.90;;;;;;5054166;28;19908;-60
2022/12/30 15:11:31;;;;;;;;;;;8.50;99.90;;;;;;5041862;28;19916;-60
2022/12/30 15:13:58;;;;;;;;;;;8.50;99.90;;;;;;5061584;28;20303;-60
2022/12/30 15:16:25;;;;;;;;;;;8.50;99.90;;;;;;5051010;28;19905;-60
2022/12/30 15:18:51;;;;;;;;;;;8.60;99.90;;;;;;5049601;28;20006;-60
2022/12/30 15:21:17;;;;;;;;;;;8.60;99.90;;;;;;5049808;28;19913;-61
2022/12/30 15:23:42;;;;;;;;;;;8.60;99.90;;;;;;5039221;28;20274;-60
2022/12/30 15:26:13;;;;;;;;;;;8.60;99.90;;;;;;5042538;28;19909;-60
2022/12/30 15:28:39;;;;;;;;;;;8.60;99.90;;;;;;5043002;28;19979;-60
2022/12/30 15:31:04;;;;;;;;;;;8.70;99.90;;;;;;5032149;28;20383;-60
2022/12/30 15:33:30;;;;;;;;;;;8.70;99.90;;;;;;5043112;28;20293;-60
2022/12/30 15:35:55;;;;;;;;;;;8.70;99.90;;;;;;5049971;28;19905;-60
2022/12/30 15:38:27;;;;;;;;;;;8.70;99.90;;;;;;5066316;28;20012;-60